Millington Regional Jetport Airport Millington US
ICAO: KNQA
IATA: NQA
Category: Medium
Scheduled Services: No

Elevation: 320 ft
TransAlt. 18000 ft.

Airport Communications:
MEMPHIS APP:119.1
AWOS 3:118.925
CTAF:120.25
MEMPHIS DEP:124.15
GND:121.375
TWR:120.25
UNICOM:122.95

KNQA Zoom In..

Runways:

(A) RW 04 length 8000 ft width 200 ft
---- / hdg 39

(B) RW 22 length 8000 ft width 200 ft
ILS 109.75 / hdg 219

Location; KNQA
Day. 22 / Time. 00.35 Zulu
* Altimeter: 30.07
* Temperature: 21° c. 69.8°f.
* Wind from: 000° Speed 00 kn with Gusts up to 10 kn.
Dewpoint: 07° c.
Visibility: 10 Statute Miles.
Clouds: Few 4300 ft.
Clouds: Scattered 5500 ft.
Clouds: Scattered 6500 ft.

KNQA 220035Z AUTO 00000G10KT 10SM FEW043 SCT055 SCT065 21/07 A3007 RMK A01


Wind - Calm.

  YouTube Music Video
 
jpsmedia.com for Web Design  worldairports.se 2018   terms of use